createdAt,value
2019-04-21T00:00:54.147Z,72.50
2019-04-21T00:03:27.482Z,72.30
2019-04-21T00:06:11.895Z,72.60
2019-04-21T00:08:42.830Z,72.00
2019-04-21T00:11:20.714Z,72.60
2019-04-21T00:13:43.887Z,72.20
2019-04-21T00:16:04.944Z,73.20
2019-04-21T00:18:54.846Z,72.60
2019-04-21T00:21:29.132Z,73.20
2019-04-21T00:24:22.728Z,72.50
2019-04-21T00:27:02.482Z,72.80
2019-04-21T00:29:38.445Z,72.60
2019-04-21T00:32:05.601Z,73.20
2019-04-21T00:34:23.632Z,73.10
2019-04-21T00:37:08.245Z,73.20
2019-04-21T00:42:14.383Z,73.30
2019-04-21T00:44:38.792Z,73.60
2019-04-21T00:47:25.413Z,72.80
2019-04-21T00:49:59.076Z,72.60
2019-04-21T00:55:14.245Z,73.00
2019-04-21T00:57:42.813Z,73.20
2019-04-21T01:00:08.457Z,73.70
2019-04-21T01:02:41.604Z,73.10
2019-04-21T01:05:14.668Z,73.40
2019-04-21T01:07:37.084Z,73.00
2019-04-21T01:10:05.237Z,73.70
2019-04-21T01:12:44.505Z,73.50
2019-04-21T01:15:18.570Z,74.10
2019-04-21T01:17:46.470Z,74.20
2019-04-21T01:20:10.468Z,74.10
2019-04-21T01:22:26.414Z,74.50
2019-04-21T01:25:07.021Z,74.30
2019-04-21T01:27:50.820Z,74.00
2019-04-21T01:30:16.500Z,73.60
2019-04-21T01:32:53.124Z,74.00
2019-04-21T01:35:21.106Z,73.10
2019-04-21T01:38:00.125Z,72.70
2019-04-21T01:40:28.869Z,73.60
2019-04-21T01:42:55.664Z,74.30
2019-04-21T01:45:32.126Z,74.40
2019-04-21T01:48:03.541Z,75.00
2019-04-21T01:50:34.471Z,75.70
2019-04-21T01:53:17.550Z,76.10
2019-04-21T01:55:48.545Z,76.40
2019-04-21T01:58:21.079Z,76.30
2019-04-21T02:00:56.884Z,76.60
2019-04-21T02:06:11.115Z,76.20
2019-04-21T02:08:38.896Z,76.50
2019-04-21T02:11:15.629Z,76.30
2019-04-21T02:13:46.861Z,77.20
2019-04-21T02:16:11.992Z,76.90
2019-04-21T02:18:46.432Z,77.70
2019-04-21T02:21:04.417Z,77.30
2019-04-21T02:23:53.805Z,77.20
2019-04-21T02:26:22.593Z,77.90
2019-04-21T09:41:27.800Z,38.80
2019-04-21T09:43:59.282Z,38.20
2019-04-21T09:46:29.882Z,39.00
2019-04-21T09:49:04.147Z,39.80
2019-04-21T09:51:30.958Z,38.50
2019-04-21T09:54:05.805Z,37.30
2019-04-21T09:56:43.634Z,38.60
2019-04-21T09:59:13.517Z,39.40
2019-04-21T10:01:49.078Z,35.20
2019-04-21T10:04:07.533Z,34.50
2019-04-21T10:06:37.461Z,33.70
2019-04-21T10:09:11.568Z,32.80
2019-04-21T10:11:41.483Z,35.10
2019-04-21T10:14:11.758Z,34.20
2019-04-21T10:16:53.949Z,35.50
2019-04-21T10:19:25.366Z,36.30
2019-04-21T10:21:56.306Z,35.10
2019-04-21T10:24:30.662Z,33.20
2019-04-21T10:27:03.586Z,31.80
2019-04-21T10:29:33.335Z,33.30
2019-04-21T10:32:03.614Z,32.80
2019-04-21T10:34:33.423Z,33.90
2019-04-21T10:37:04.936Z,33.40
2019-04-21T10:39:35.701Z,33.00
2019-04-21T10:42:05.704Z,33.30
2019-04-21T10:44:41.406Z,34.60
2019-04-21T10:47:11.189Z,34.30
2019-04-21T10:49:40.894Z,34.10
2019-04-21T10:52:15.265Z,34.40
2019-04-21T10:55:06.938Z,36.60
2019-04-21T10:57:18.266Z,35.40
2019-04-21T10:59:50.738Z,35.40
2019-04-21T11:02:21.171Z,35.70
2019-04-21T11:05:58.803Z,36.10
2019-04-21T11:08:34.174Z,37.20
2019-04-21T11:11:00.082Z,36.70
2019-04-21T11:13:30.750Z,35.90
2019-04-21T11:16:01.298Z,36.70
2019-04-21T11:18:31.697Z,37.90
2019-04-21T11:21:02.810Z,40.20
2019-04-21T11:23:33.188Z,39.30
2019-04-21T11:26:04.275Z,39.80
2019-04-21T11:28:34.640Z,40.30
2019-04-21T11:31:04.847Z,37.50
2019-04-21T11:33:35.573Z,38.00
2019-04-21T11:36:07.068Z,39.40
2019-04-21T11:38:57.100Z,36.80
2019-04-21T11:41:11.925Z,38.50
2019-04-21T11:43:43.157Z,38.80
2019-04-21T11:46:13.062Z,37.50
2019-04-21T11:48:44.088Z,37.70
2019-04-21T11:51:15.145Z,37.60
2019-04-21T11:53:45.010Z,37.40
2019-04-21T11:56:14.769Z,39.30
2019-04-21T11:58:45.822Z,40.30
2019-04-21T12:01:15.846Z,40.50
2019-04-21T12:03:45.583Z,38.70
2019-04-21T12:06:15.521Z,36.90
2019-04-21T12:08:49.384Z,38.00
2019-04-21T12:11:17.754Z,39.00
2019-04-21T12:13:47.980Z,38.70
2019-04-21T12:16:18.985Z,35.20
2019-04-21T12:18:50.996Z,36.90
2019-04-21T12:21:21.266Z,37.10
2019-04-21T12:23:52.305Z,36.70
2019-04-21T12:26:22.195Z,36.40
2019-04-21T12:28:53.556Z,36.00
2019-04-21T12:31:41.362Z,34.50
2019-04-21T12:34:12.409Z,34.20
2019-04-21T12:36:43.609Z,34.70
2019-04-21T12:39:14.890Z,30.50
2019-04-21T12:41:44.704Z,31.90
2019-04-21T12:44:20.439Z,31.50
2019-04-21T12:46:51.865Z,34.70
2019-04-21T12:49:22.777Z,34.30
2019-04-21T12:51:53.525Z,33.50
2019-04-21T12:54:23.803Z,33.70
2019-04-21T12:56:53.823Z,33.60
2019-04-21T12:59:24.589Z,33.10
2019-04-21T13:01:54.895Z,32.40
2019-04-21T13:04:25.962Z,33.00
2019-04-21T13:06:57.336Z,31.80
2019-04-21T13:09:29.183Z,32.10
2019-04-21T13:11:59.448Z,30.90
2019-04-21T13:14:29.590Z,30.90
2019-04-21T13:17:01.383Z,30.10
2019-04-21T13:19:31.523Z,30.00
2019-04-21T13:22:01.631Z,29.70
2019-04-21T13:24:31.786Z,29.70
2019-04-21T13:27:03.950Z,30.00
2019-04-21T13:29:34.453Z,29.20
2019-04-21T13:32:05.481Z,28.80
2019-04-21T13:34:35.937Z,29.60
2019-04-21T13:37:05.856Z,29.90
2019-04-21T13:40:01.799Z,29.90
2019-04-21T13:42:17.475Z,29.40
2019-04-21T13:44:41.866Z,27.20
2019-04-21T13:47:12.489Z,26.50
2019-04-21T13:49:43.360Z,27.80
2019-04-21T13:52:13.170Z,27.50
2019-04-21T13:54:43.273Z,26.60
2019-04-21T13:57:14.413Z,27.30
2019-04-21T13:59:44.492Z,28.00
2019-04-21T14:02:14.247Z,26.70
2019-04-21T14:04:45.283Z,27.10
2019-04-21T14:07:16.364Z,28.00
2019-04-21T14:09:55.233Z,27.70
2019-04-21T14:12:17.513Z,27.10
2019-04-21T14:14:48.331Z,26.80
2019-04-21T14:17:19.088Z,27.70
2019-04-21T14:19:49.021Z,27.10
2019-04-21T14:22:20.078Z,27.60
2019-04-21T14:24:50.015Z,27.70
2019-04-21T14:27:20.484Z,28.90
2019-04-21T14:29:51.440Z,27.60
2019-04-21T14:32:22.325Z,28.10
2019-04-21T14:34:53.943Z,27.80
2019-04-21T14:37:24.761Z,27.90
2019-04-21T14:40:01.301Z,27.90
2019-04-21T14:42:26.459Z,27.80
2019-04-21T14:44:56.790Z,27.90
2019-04-21T14:47:44.645Z,27.50
2019-04-21T14:50:17.577Z,25.90
2019-04-21T14:52:50.423Z,28.20
2019-04-21T14:55:22.955Z,28.30
2019-04-21T14:57:52.658Z,27.60
2019-04-21T15:00:24.996Z,25.80
2019-04-21T15:02:55.861Z,25.10
2019-04-21T15:05:25.677Z,26.70
2019-04-21T15:07:55.390Z,28.20
2019-04-21T15:10:28.616Z,28.00
2019-04-21T15:12:57.506Z,28.60
2019-04-21T15:15:27.814Z,29.50
2019-04-21T15:18:01.854Z,30.50
2019-04-21T15:20:38.457Z,29.80
2019-04-21T15:23:08.791Z,29.80
2019-04-21T15:25:38.586Z,29.20
2019-04-21T15:28:09.543Z,29.40
2019-04-21T15:30:40.711Z,28.50
2019-04-21T15:33:10.708Z,28.90
2019-04-21T15:35:40.676Z,27.90
2019-04-21T15:38:11.844Z,27.80
2019-04-21T15:40:49.719Z,29.20
2019-04-21T15:43:13.051Z,28.80
2019-04-21T15:45:42.786Z,27.90
2019-04-21T15:48:13.851Z,27.30
2019-04-21T15:50:44.146Z,28.00
2019-04-21T15:53:21.692Z,28.30
2019-04-21T15:56:02.951Z,28.70
2019-04-21T15:58:48.432Z,29.70
2019-04-21T16:01:26.525Z,28.70
2019-04-21T16:03:58.804Z,30.20
2019-04-21T16:06:27.767Z,30.80
2019-04-21T16:09:00.797Z,32.30
2019-04-21T16:11:28.792Z,31.00
2019-04-21T16:13:59.648Z,31.40
2019-04-21T16:16:31.053Z,31.30
2019-04-21T16:19:00.825Z,31.70
2019-04-21T16:21:35.282Z,32.00
2019-04-21T16:24:04.507Z,33.20
2019-04-21T16:26:34.969Z,33.70
2019-04-21T16:29:05.090Z,33.20
2019-04-21T16:31:36.345Z,32.90
2019-04-21T16:34:07.250Z,33.30
2019-04-21T16:36:37.985Z,32.90
2019-04-21T16:39:09.408Z,32.00
2019-04-21T16:41:40.380Z,32.50
2019-04-21T16:44:11.318Z,32.30
2019-04-21T16:46:41.353Z,32.50
2019-04-21T16:49:11.798Z,32.60
2019-04-21T16:51:42.300Z,32.70
2019-04-21T16:54:13.735Z,34.30
2019-04-21T16:56:45.681Z,35.20
2019-04-21T16:59:17.095Z,34.60
2019-04-21T17:01:46.911Z,36.40
2019-04-21T17:04:16.554Z,36.70
2019-04-21T17:06:47.144Z,35.40
2019-04-21T17:09:16.878Z,36.40
2019-04-21T17:11:48.493Z,37.10
2019-04-21T17:14:39.605Z,37.00
2019-04-21T17:17:16.329Z,36.50
2019-04-21T17:19:29.127Z,38.40
2019-04-21T17:21:55.381Z,38.70
2019-04-21T17:24:26.442Z,38.40
2019-04-21T17:26:57.428Z,38.00
2019-04-21T17:29:28.491Z,38.30
2019-04-21T17:31:59.755Z,39.20
2019-04-21T17:34:33.443Z,40.10
2019-04-21T17:37:03.419Z,40.60
2019-04-21T17:39:34.584Z,40.50
2019-04-21T17:42:16.634Z,40.50
2019-04-21T17:44:37.260Z,40.30
2019-04-21T17:47:20.102Z,40.00
2019-04-21T17:49:39.333Z,41.60
2019-04-21T17:52:16.919Z,42.30
2019-04-21T17:54:50.588Z,44.90
2019-04-21T17:57:36.457Z,43.80
2019-04-21T18:00:14.017Z,42.70
2019-04-21T18:02:41.355Z,43.60
2019-04-21T18:05:15.575Z,43.10
2019-04-21T18:07:41.856Z,43.90
2019-04-21T18:10:14.300Z,46.40
2019-04-21T18:12:40.098Z,46.10
2019-04-21T18:15:17.615Z,46.50
2019-04-21T18:17:29.038Z,48.30
2019-04-21T18:19:59.696Z,47.00
2019-04-21T18:22:37.301Z,46.90
2019-04-21T18:25:09.869Z,48.80
2019-04-21T18:27:36.617Z,47.80
2019-04-21T18:30:44.894Z,46.90
2019-04-21T18:33:22.305Z,46.60
2019-04-21T18:35:53.429Z,47.90
2019-04-21T18:38:29.560Z,49.00
2019-04-21T18:40:56.430Z,49.70
2019-04-21T18:44:04.105Z,49.40
2019-04-21T18:46:22.293Z,49.50
2019-04-21T18:48:47.023Z,49.50
2019-04-21T18:51:18.691Z,49.70
2019-04-21T18:54:16.193Z,49.90
2019-04-21T18:56:25.278Z,50.20
2019-04-21T18:58:56.358Z,50.00
2019-04-21T19:01:29.668Z,50.90
2019-04-21T19:03:58.304Z,51.00
2019-04-21T19:06:45.879Z,51.90
2019-04-21T19:09:20.001Z,52.10
2019-04-21T19:11:51.870Z,53.20
2019-04-21T19:14:32.127Z,52.80
2019-04-21T19:17:39.583Z,53.40
2019-04-21T19:19:41.298Z,53.60
2019-04-21T19:22:00.529Z,53.80
2019-04-21T19:24:37.021Z,54.20
2019-04-21T19:27:19.245Z,55.50
2019-04-21T19:32:01.782Z,57.20
2019-04-21T19:34:23.750Z,56.40
2019-04-21T19:36:55.827Z,56.10
2019-04-21T19:39:36.420Z,56.30
2019-04-21T19:42:00.550Z,56.10
2019-04-21T19:44:44.875Z,56.30
2019-04-21T19:47:13.763Z,56.60
2019-04-21T19:49:47.691Z,56.50
2019-04-21T19:52:04.022Z,55.80
2019-04-21T19:54:35.894Z,56.20
2019-04-21T19:56:59.264Z,55.80
2019-04-21T19:59:36.614Z,56.10
2019-04-21T20:02:00.642Z,56.50
2019-04-21T20:04:38.487Z,56.20
2019-04-21T20:07:19.020Z,55.70
2019-04-21T20:09:49.061Z,56.00
2019-04-21T20:12:29.733Z,56.80
2019-04-21T20:15:08.846Z,57.00
2019-04-21T20:17:18.845Z,57.00
2019-04-21T20:19:40.279Z,57.10
2019-04-21T20:22:11.307Z,56.30
2019-04-21T20:24:50.842Z,56.30
2019-04-21T20:27:17.766Z,56.60
2019-04-21T20:30:02.624Z,57.10
2019-04-21T20:32:30.646Z,56.40
2019-04-21T20:35:07.153Z,56.10
2019-04-21T20:37:32.072Z,57.50
2019-04-21T20:39:58.447Z,57.20
2019-04-21T20:42:36.758Z,58.50
2019-04-21T20:45:23.544Z,58.10
2019-04-21T20:47:32.092Z,57.80
2019-04-21T20:50:11.433Z,57.20
2019-04-21T20:52:50.943Z,56.90
2019-04-21T20:55:10.914Z,57.00
2019-04-21T20:57:41.775Z,57.80
2019-04-21T21:00:21.576Z,58.40
2019-04-21T21:02:55.559Z,60.00
2019-04-21T21:05:23.083Z,59.90
2019-04-21T21:08:00.390Z,59.70
2019-04-21T21:10:26.393Z,59.70
2019-04-21T21:13:12.809Z,59.80
2019-04-21T21:15:29.228Z,60.80
2019-04-21T21:18:06.234Z,59.80
2019-04-21T21:20:35.762Z,59.10
2019-04-21T21:22:58.443Z,59.60
2019-04-21T21:25:39.870Z,60.40
2019-04-21T21:27:57.945Z,59.90
2019-04-21T21:30:34.787Z,61.20
2019-04-21T21:33:15.333Z,61.60
2019-04-21T21:35:39.533Z,61.40
2019-04-21T21:38:13.150Z,60.40
2019-04-21T21:40:42.775Z,61.10
2019-04-21T21:43:08.176Z,61.50
2019-04-21T21:45:41.494Z,61.60
2019-04-21T21:48:21.774Z,63.20
2019-04-21T21:50:45.713Z,62.50
2019-04-21T21:53:13.664Z,62.60
2019-04-21T21:55:38.652Z,63.00
2019-04-21T21:58:10.475Z,63.70
2019-04-21T22:00:43.023Z,63.00
2019-04-21T22:03:22.699Z,64.00
2019-04-21T22:05:53.552Z,63.80
2019-04-21T22:08:16.366Z,63.10
2019-04-21T22:10:47.353Z,63.00
2019-04-21T22:13:20.350Z,63.40
2019-04-21T22:15:56.459Z,63.20
2019-04-21T22:18:39.062Z,63.20
2019-04-21T22:21:09.137Z,62.70
2019-04-21T22:23:35.648Z,63.70
2019-04-21T22:25:55.415Z,64.30
2019-04-21T22:28:25.534Z,63.90
2019-04-21T22:30:56.751Z,65.10
2019-04-21T22:33:31.285Z,63.90
2019-04-21T22:36:05.908Z,65.30
2019-04-21T22:38:43.455Z,65.40
2019-04-21T22:41:18.126Z,65.00
2019-04-21T22:43:40.003Z,66.50
2019-04-21T22:46:03.435Z,67.50
2019-04-21T22:48:34.581Z,67.90
2019-04-21T22:51:08.841Z,68.90
2019-04-21T22:53:44.800Z,70.30
2019-04-21T22:56:15.009Z,70.60
2019-04-21T22:58:42.522Z,70.70
2019-04-21T23:01:11.021Z,70.90
2019-04-21T23:03:49.203Z,70.30
2019-04-21T23:06:19.270Z,70.00
2019-04-21T23:08:45.660Z,70.80
2019-04-21T23:11:16.662Z,69.90
2019-04-21T23:13:52.673Z,70.00
2019-04-21T23:16:20.534Z,69.60
2019-04-21T23:19:05.941Z,70.10
2019-04-21T23:21:42.128Z,70.60
2019-04-21T23:24:09.420Z,70.30
2019-04-21T23:26:39.484Z,70.70
2019-04-21T23:29:15.645Z,70.60
2019-04-21T23:31:47.596Z,69.70
2019-04-21T23:33:58.154Z,70.60
2019-04-21T23:36:31.433Z,70.70
2019-04-21T23:38:59.239Z,69.90
2019-04-21T23:41:36.035Z,70.80
2019-04-21T23:44:05.869Z,70.80
2019-04-21T23:46:35.144Z,71.40
2019-04-21T23:49:20.065Z,71.50
2019-04-21T23:51:43.485Z,71.40
2019-04-21T23:54:07.014Z,71.50
2019-04-21T23:56:40.899Z,70.90
2019-04-21T23:59:11.564Z,72.20
